Time;durP1;ratioP1;P1;durP2;ratioP2;P2;SDS_P1;SDS_P2;PMS_P1;PMS_P2;Temp;Humidity;BMP_temperature;BMP_pressure;BME280_temperature;BME280_humidity;BME280_pressure;Samples;Min_cycle;Max_cycle;Signal;HPM_P1;HPM_P2
2022/01/23 00:01:06;;;;;;;5.03;4.50;;;;;;;;;;5074688;28;20225;-73
2022/01/23 00:03:35;;;;;;;8.17;4.23;;;;;;;;;;5068488;28;20274;-70
2022/01/23 00:06:04;;;;;;;5.87;4.23;;;;;;;;;;5072159;28;20202;-74
2022/01/23 00:08:32;;;;;;;7.23;4.83;;;;;;;;;;5067942;28;20223;-74
2022/01/23 00:11:01;;;;;;;7.27;4.83;;;;;;;;;;5067885;28;20233;-73
2022/01/23 00:17:12;;;;;;;10.57;5.20;;;;;;;;;;5073975;28;20336;-73
2022/01/23 00:19:07;;;;;;;6.30;5.20;;;;;;;;;;5073644;28;20234;-73
2022/01/23 00:21:38;;;;;;;7.13;5.70;;;;;;;;;;5073373;28;20198;-74
2022/01/23 00:32:28;;;;;;;13.03;6.93;;;;;;;;;;5069309;28;20644;-74
2022/01/23 00:34:57;;;;;;;9.97;6.43;;;;;;;;;;5071839;28;20195;-72
2022/01/23 00:37:25;;;;;;;11.43;7.20;;;;;;;;;;5073008;28;20227;-73
2022/01/23 00:39:53;;;;;;;10.60;6.73;;;;;;;;;;5073250;28;20206;-72
2022/01/23 00:42:22;;;;;;;15.37;7.57;;;;;;;;;;5067912;28;20704;-72
2022/01/23 00:45:08;;;;;;;10.73;7.10;;;;;;;;;;5072086;28;20218;-73
2022/01/23 00:47:37;;;;;;;10.43;7.47;;;;;;;;;;5073034;28;20592;-72
2022/01/23 00:50:06;;;;;;;11.20;7.43;;;;;;;;;;5072901;28;20198;-73
2022/01/23 00:52:34;;;;;;;12.47;8.30;;;;;;;;;;5071667;28;20210;-73
2022/01/23 00:55:04;;;;;;;11.00;7.80;;;;;;;;;;5073082;28;20206;-73
2022/01/23 00:57:33;;;;;;;13.17;8.13;;;;;;;;;;5072955;28;20219;-73
2022/01/23 01:00:05;;;;;;;11.77;8.50;;;;;;;;;;5073355;28;20206;-71
2022/01/23 01:02:33;;;;;;;12.73;8.70;;;;;;;;;;5068934;28;20199;-74
2022/01/23 01:05:02;;;;;;;14.47;9.03;;;;;;;;;;5072866;28;20194;-73
2022/01/23 01:07:30;;;;;;;12.27;8.27;;;;;;;;;;5073849;28;20308;-72
2022/01/23 01:10:04;;;;;;;16.33;9.07;;;;;;;;;;5072568;28;20202;-73
2022/01/23 01:12:38;;;;;;;15.70;9.37;;;;;;;;;;5069030;28;20275;-72
2022/01/23 01:31:53;;;;;;;14.37;10.57;;;;;;;;;;5079122;28;20218;-71
2022/01/23 01:34:29;;;;;;;12.33;10.03;;;;;;;;;;5073182;28;20202;-73
2022/01/23 01:36:58;;;;;;;13.93;10.90;;;;;;;;;;5072913;28;20649;-74
2022/01/23 01:39:28;;;;;;;13.70;10.00;;;;;;;;;;5076849;28;20739;-74
2022/01/23 01:41:57;;;;;;;15.87;10.20;;;;;;;;;;5076904;28;20248;-72
2022/01/23 01:44:25;;;;;;;13.50;10.67;;;;;;;;;;5076624;28;20254;-73
2022/01/23 01:46:55;;;;;;;14.93;10.40;;;;;;;;;;5076262;28;20210;-73
2022/01/23 01:49:28;;;;;;;17.00;11.10;;;;;;;;;;5077181;28;20233;-72
2022/01/23 01:51:58;;;;;;;16.07;11.30;;;;;;;;;;5076243;28;20214;-72
2022/01/23 01:54:29;;;;;;;14.23;11.37;;;;;;;;;;5076814;28;20206;-73
2022/01/23 01:57:06;;;;;;;19.30;11.80;;;;;;;;;;5076093;28;20210;-71
2022/01/23 02:03:07;;;;;;;12.87;10.60;;;;;;;;;;5075463;28;20201;-74
2022/01/23 02:08:24;;;;;;;12.20;10.23;;;;;;;;;;5075998;28;20287;-73
2022/01/23 02:10:57;;;;;;;14.50;10.63;;;;;;;;;;5076078;28;20218;-73
2022/01/23 02:13:30;;;;;;;14.33;10.70;;;;;;;;;;5076416;28;20205;-74
2022/01/23 02:24:47;;;;;;;14.47;10.00;;;;;;;;;;5045132;28;20756;-72
2022/01/23 02:52:12;;;;;;;11.60;8.73;;;;;;;;;;5046544;28;20230;-74
2022/01/23 02:54:56;;;;;;;11.83;7.93;;;;;;;;;;5075878;28;20214;-71
2022/01/23 02:57:47;;;;;;;12.50;8.10;;;;;;;;;;5075520;28;20226;-72
2022/01/23 03:00:18;;;;;;;9.70;7.90;;;;;;;;;;5055681;28;20199;-74
2022/01/23 03:02:49;;;;;;;10.43;8.03;;;;;;;;;;5065523;28;20206;-73
2022/01/23 03:05:34;;;;;;;11.53;8.17;;;;;;;;;;5095905;28;20609;-74
2022/01/23 03:08:04;;;;;;;10.60;7.90;;;;;;;;;;5069514;28;20278;-72
2022/01/23 03:10:38;;;;;;;9.63;7.47;;;;;;;;;;5076511;28;20546;-72
2022/01/23 03:24:05;;;;;;;10.10;7.77;;;;;;;;;;5075231;28;20209;-73
2022/01/23 03:25:10;;;;;;;8.03;7.00;;;;;;;;;;5013549;28;20208;-75
2022/01/23 03:28:05;;;;;;;10.63;6.87;;;;;;;;;;5004384;28;20228;-72
2022/01/23 03:30:38;;;;;;;9.40;6.77;;;;;;;;;;5037715;28;20210;-74
2022/01/23 03:33:06;;;;;;;11.00;7.83;;;;;;;;;;5055177;28;20285;-73
2022/01/23 03:35:34;;;;;;;9.53;7.23;;;;;;;;;;5057443;28;20207;-74
2022/01/23 03:38:03;;;;;;;9.03;7.00;;;;;;;;;;5073636;28;20690;-72
2022/01/23 03:40:31;;;;;;;12.53;6.97;;;;;;;;;;5064631;28;20708;-73
2022/01/23 03:43:09;;;;;;;8.73;6.60;;;;;;;;;;5072592;28;20210;-73
2022/01/23 03:45:57;;;;;;;8.57;6.83;;;;;;;;;;5075018;28;20260;-74
2022/01/23 03:51:16;;;;;;;11.33;7.47;;;;;;;;;;5074588;28;20670;-72
2022/01/23 03:53:45;;;;;;;9.73;7.13;;;;;;;;;;5075122;28;20202;-73
2022/01/23 03:56:14;;;;;;;11.07;7.53;;;;;;;;;;5074447;28;20203;-73
2022/01/23 03:58:44;;;;;;;10.27;7.17;;;;;;;;;;5072049;28;20218;-71
2022/01/23 04:01:13;;;;;;;9.60;7.20;;;;;;;;;;5072651;28;20691;-71
2022/01/23 04:03:42;;;;;;;10.53;7.40;;;;;;;;;;5074336;28;20203;-74
2022/01/23 04:06:10;;;;;;;11.33;7.43;;;;;;;;;;5076894;28;20206;-75
2022/01/23 04:08:38;;;;;;;10.07;7.20;;;;;;;;;;5081196;28;20222;-72
2022/01/23 04:11:07;;;;;;;10.90;7.10;;;;;;;;;;5073741;28;20214;-74
2022/01/23 04:13:44;;;;;;;12.27;6.80;;;;;;;;;;5074216;28;20264;-73
2022/01/23 04:16:34;;;;;;;11.33;7.53;;;;;;;;;;5074121;28;20190;-74
2022/01/23 04:19:17;;;;;;;10.07;6.70;;;;;;;;;;5073924;28;20222;-74
2022/01/23 04:33:16;;;;;;;8.93;6.67;;;;;;;;;;5073706;28;20681;-74
2022/01/23 04:45:13;;;;;;;10.53;6.60;;;;;;;;;;5074358;28;20267;-75
2022/01/23 05:00:53;;;;;;;10.23;8.07;;;;;;;;;;5073132;28;20202;-74
2022/01/23 05:06:10;;;;;;;13.10;9.53;;;;;;;;;;5073472;28;20666;-74
2022/01/23 05:08:39;;;;;;;12.10;9.00;;;;;;;;;;5073141;28;20230;-74
2022/01/23 05:11:11;;;;;;;11.77;9.73;;;;;;;;;;5073047;28;20290;-73
2022/01/23 05:13:40;;;;;;;12.93;9.17;;;;;;;;;;5067299;28;20222;-72
2022/01/23 05:16:10;;;;;;;10.73;9.07;;;;;;;;;;5073676;28;20207;-74
2022/01/23 05:18:39;;;;;;;12.30;9.40;;;;;;;;;;5072700;28;20287;-72
2022/01/23 05:21:32;;;;;;;11.93;9.53;;;;;;;;;;5072711;28;20225;-72
2022/01/23 05:24:01;;;;;;;11.23;9.50;;;;;;;;;;5073008;28;20630;-74
2022/01/23 05:26:31;;;;;;;11.47;8.67;;;;;;;;;;5072762;28;20266;-72
2022/01/23 05:28:59;;;;;;;11.87;8.50;;;;;;;;;;5072828;28;20222;-73
2022/01/23 05:31:27;;;;;;;12.37;9.13;;;;;;;;;;5073310;28;20218;-75
2022/01/23 05:33:56;;;;;;;12.80;9.70;;;;;;;;;;5073433;28;20279;-72
2022/01/23 05:36:26;;;;;;;12.77;9.40;;;;;;;;;;5086250;28;20270;-74
2022/01/23 05:38:54;;;;;;;13.37;9.50;;;;;;;;;;5078335;28;20268;-73
2022/01/23 05:41:22;;;;;;;15.47;10.20;;;;;;;;;;5073221;28;20206;-75
2022/01/23 05:43:51;;;;;;;13.50;9.03;;;;;;;;;;5072952;28;20611;-74
2022/01/23 05:46:19;;;;;;;13.60;10.03;;;;;;;;;;5083893;28;20209;-73
2022/01/23 05:48:48;;;;;;;13.57;9.30;;;;;;;;;;5093116;28;20294;-74
2022/01/23 05:51:17;;;;;;;12.03;9.87;;;;;;;;;;5073428;28;20301;-75
2022/01/23 05:53:47;;;;;;;12.67;9.63;;;;;;;;;;5072808;28;20646;-74
2022/01/23 05:56:17;;;;;;;12.97;9.77;;;;;;;;;;5072272;28;20211;-72
2022/01/23 05:58:45;;;;;;;13.10;9.30;;;;;;;;;;5072600;28;20227;-75
2022/01/23 06:01:14;;;;;;;14.53;9.70;;;;;;;;;;5072953;28;20230;-75
2022/01/23 06:03:43;;;;;;;13.43;9.63;;;;;;;;;;5072873;28;20221;-72
2022/01/23 06:06:11;;;;;;;16.47;10.13;;;;;;;;;;5071634;28;20206;-73
2022/01/23 06:08:40;;;;;;;12.70;9.73;;;;;;;;;;5072392;28;20276;-73
2022/01/23 06:11:09;;;;;;;13.57;9.43;;;;;;;;;;5067375;28;20211;-74
2022/01/23 06:13:38;;;;;;;12.97;10.37;;;;;;;;;;5072714;28;20233;-73
2022/01/23 06:16:07;;;;;;;14.03;10.20;;;;;;;;;;5080215;28;20723;-74
2022/01/23 06:18:38;;;;;;;12.43;10.37;;;;;;;;;;5074879;28;20228;-74
2022/01/23 06:21:07;;;;;;;12.83;9.53;;;;;;;;;;5073072;28;20582;-73
2022/01/23 06:23:35;;;;;;;14.10;9.60;;;;;;;;;;5062265;28;20207;-72
2022/01/23 06:26:04;;;;;;;13.23;9.60;;;;;;;;;;5063729;28;20582;-70
2022/01/23 06:28:40;;;;;;;13.07;9.40;;;;;;;;;;5075327;28;20232;-75
2022/01/23 06:31:09;;;;;;;15.10;9.60;;;;;;;;;;5075759;28;20202;-73
2022/01/23 06:33:37;;;;;;;11.87;9.10;;;;;;;;;;5076165;28;20254;-75
2022/01/23 06:36:09;;;;;;;10.63;8.37;;;;;;;;;;5075875;28;20198;-73
2022/01/23 06:38:37;;;;;;;11.93;9.27;;;;;;;;;;5075439;28;20226;-72
2022/01/23 06:41:06;;;;;;;10.23;8.80;;;;;;;;;;5076134;28;20203;-74
2022/01/23 06:43:35;;;;;;;11.70;8.80;;;;;;;;;;5076205;28;20252;-71
2022/01/23 06:46:04;;;;;;;11.07;8.40;;;;;;;;;;5064121;28;20211;-74
2022/01/23 06:48:33;;;;;;;13.63;8.83;;;;;;;;;;5071276;28;20283;-72
2022/01/23 06:51:02;;;;;;;11.47;9.10;;;;;;;;;;5084745;28;20255;-74
2022/01/23 06:53:30;;;;;;;13.63;8.30;;;;;;;;;;5096189;28;20745;-74
2022/01/23 06:55:59;;;;;;;14.07;9.03;;;;;;;;;;5089616;28;20210;-72
2022/01/23 06:58:27;;;;;;;10.67;8.70;;;;;;;;;;5075247;28;20227;-73
2022/01/23 07:00:57;;;;;;;12.97;9.07;;;;;;;;;;5081433;28;20198;-74
2022/01/23 07:03:25;;;;;;;10.90;8.63;;;;;;;;;;5076017;28;20212;-72
2022/01/23 07:05:54;;;;;;;12.10;8.57;;;;;;;;;;5075579;28;20195;-72
2022/01/23 07:08:22;;;;;;;11.77;8.63;;;;;;;;;;5072706;28;20226;-74
2022/01/23 07:10:51;;;;;;;12.87;8.90;;;;;;;;;;5073354;28;20205;-74
2022/01/23 07:13:19;;;;;;;13.67;8.87;;;;;;;;;;5073493;28;20214;-74
2022/01/23 07:15:48;;;;;;;12.13;9.17;;;;;;;;;;5074795;28;20204;-71
2022/01/23 07:18:19;;;;;;;10.80;8.90;;;;;;;;;;5075339;28;20280;-75
2022/01/23 07:20:47;;;;;;;11.90;9.13;;;;;;;;;;5075452;28;20217;-73
2022/01/23 07:23:21;;;;;;;11.13;9.37;;;;;;;;;;5088385;28;20609;-74
2022/01/23 07:25:49;;;;;;;11.67;9.23;;;;;;;;;;5092319;28;20191;-74
2022/01/23 07:28:21;;;;;;;12.27;9.20;;;;;;;;;;5080239;28;20268;-72
2022/01/23 07:30:52;;;;;;;13.00;9.03;;;;;;;;;;5075377;28;20187;-73
2022/01/23 07:33:21;;;;;;;11.67;8.93;;;;;;;;;;5087824;28;20222;-72
2022/01/23 07:35:50;;;;;;;14.37;9.10;;;;;;;;;;5084317;28;20210;-73
2022/01/23 07:38:19;;;;;;;10.40;8.20;;;;;;;;;;5066912;28;20229;-73
2022/01/23 07:40:49;;;;;;;12.53;8.47;;;;;;;;;;5075070;28;20202;-73
2022/01/23 07:43:18;;;;;;;16.27;9.33;;;;;;;;;;5074832;28;20214;-74
2022/01/23 07:45:46;;;;;;;12.37;8.93;;;;;;;;;;5075509;28;20229;-72
2022/01/23 07:48:15;;;;;;;15.30;10.07;;;;;;;;;;5094940;28;20232;-74
2022/01/23 07:50:46;;;;;;;14.00;9.90;;;;;;;;;;5093303;28;20278;-73
2022/01/23 07:53:14;;;;;;;14.30;9.93;;;;;;;;;;5073956;28;20268;-72
2022/01/23 07:55:44;;;;;;;11.37;9.17;;;;;;;;;;5074879;28;20226;-74
2022/01/23 07:58:14;;;;;;;15.37;9.50;;;;;;;;;;5074187;28;20226;-74
2022/01/23 08:00:48;;;;;;;14.00;10.20;;;;;;;;;;5078869;28;20198;-75
2022/01/23 08:03:17;;;;;;;12.50;8.97;;;;;;;;;;5068178;28;20202;-72
2022/01/23 08:05:47;;;;;;;11.27;8.97;;;;;;;;;;5074735;28;20568;-72
2022/01/23 08:08:15;;;;;;;13.60;9.10;;;;;;;;;;5074478;28;20288;-71
2022/01/23 08:10:58;;;;;;;16.87;9.67;;;;;;;;;;5074017;28;20619;-75
2022/01/23 08:13:26;;;;;;;11.37;8.70;;;;;;;;;;5074094;28;20205;-72
2022/01/23 08:15:55;;;;;;;12.70;9.27;;;;;;;;;;5072821;28;20275;-74
2022/01/23 08:18:23;;;;;;;10.53;8.30;;;;;;;;;;5074122;28;20222;-73
2022/01/23 08:20:53;;;;;;;11.87;9.30;;;;;;;;;;5074025;28;20206;-73
2022/01/23 08:23:22;;;;;;;11.30;8.63;;;;;;;;;;5073982;28;20611;-74
2022/01/23 08:25:51;;;;;;;12.37;9.47;;;;;;;;;;5074184;28;20232;-71
2022/01/23 08:28:19;;;;;;;12.67;9.33;;;;;;;;;;5073857;28;20226;-75
2022/01/23 08:30:47;;;;;;;13.00;8.80;;;;;;;;;;5073581;28;20236;-75
2022/01/23 08:33:16;;;;;;;12.47;9.10;;;;;;;;;;5075795;28;20658;-74
2022/01/23 08:35:45;;;;;;;15.43;8.83;;;;;;;;;;5085121;28;20677;-72
2022/01/23 08:38:15;;;;;;;12.87;9.30;;;;;;;;;;5073492;28;20253;-73
2022/01/23 08:41:49;;;;;;;14.00;8.80;;;;;;;;;;5077018;28;20243;-74
2022/01/23 08:43:37;;;;;;;11.23;8.53;;;;;;;;;;5083020;28;20226;-74
2022/01/23 08:46:06;;;;;;;14.07;9.07;;;;;;;;;;5073432;28;20654;-74
2022/01/23 08:48:35;;;;;;;13.23;9.30;;;;;;;;;;5084100;28;20217;-71
2022/01/23 08:51:03;;;;;;;12.93;8.83;;;;;;;;;;5074817;27;20202;-74
2022/01/23 08:53:33;;;;;;;14.50;9.00;;;;;;;;;;5083895;28;20208;-75
2022/01/23 08:56:02;;;;;;;11.23;8.43;;;;;;;;;;5073991;28;20226;-74
2022/01/23 08:58:30;;;;;;;11.20;8.50;;;;;;;;;;5074574;28;20225;-74
2022/01/23 09:00:59;;;;;;;13.33;8.70;;;;;;;;;;5072666;28;20658;-73
2022/01/23 09:03:27;;;;;;;12.57;8.87;;;;;;;;;;5073819;28;20230;-73
2022/01/23 09:05:56;;;;;;;13.63;9.83;;;;;;;;;;5080151;28;20553;-75
2022/01/23 09:08:24;;;;;;;13.23;9.13;;;;;;;;;;5092120;28;20290;-72
2022/01/23 09:10:57;;;;;;;12.37;8.80;;;;;;;;;;5073991;28;20720;-74
2022/01/23 09:13:40;;;;;;;13.17;9.20;;;;;;;;;;5073117;28;20232;-72
2022/01/23 09:16:09;;;;;;;11.13;8.67;;;;;;;;;;5077094;28;20213;-74
2022/01/23 09:18:37;;;;;;;13.80;8.70;;;;;;;;;;5077055;28;20222;-74
2022/01/23 09:21:06;;;;;;;13.27;8.40;;;;;;;;;;5072499;28;20248;-73
2022/01/23 09:23:34;;;;;;;11.23;8.20;;;;;;;;;;5089657;28;20555;-71
2022/01/23 09:26:09;;;;;;;11.83;8.27;;;;;;;;;;5076212;28;20206;-74
2022/01/23 09:28:40;;;;;;;12.07;8.10;;;;;;;;;;5070003;28;20222;-73
2022/01/23 09:31:10;;;;;;;12.20;8.13;;;;;;;;;;5066907;28;20217;-74
2022/01/23 09:33:39;;;;;;;11.77;8.30;;;;;;;;;;5067712;28;20672;-73
2022/01/23 09:36:18;;;;;;;12.00;8.00;;;;;;;;;;5069704;28;20233;-73
2022/01/23 09:38:48;;;;;;;9.50;7.30;;;;;;;;;;5072625;28;20257;-71
2022/01/23 09:41:35;;;;;;;10.20;6.90;;;;;;;;;;5070678;28;20238;-72
2022/01/23 09:44:09;;;;;;;10.60;7.20;;;;;;;;;;5070999;28;20194;-74
2022/01/23 09:46:39;;;;;;;9.60;6.67;;;;;;;;;;5070264;28;20308;-72
2022/01/23 09:49:09;;;;;;;9.67;6.93;;;;;;;;;;5072867;28;20202;-75
2022/01/23 09:51:44;;;;;;;11.20;7.57;;;;;;;;;;5081326;28;20206;-74
2022/01/23 09:54:19;;;;;;;11.50;7.20;;;;;;;;;;5072766;28;20277;-74
2022/01/23 09:56:54;;;;;;;11.53;7.27;;;;;;;;;;5070659;28;20282;-73
2022/01/23 09:59:25;;;;;;;9.93;6.50;;;;;;;;;;5080222;28;20213;-74
2022/01/23 10:01:56;;;;;;;11.47;6.90;;;;;;;;;;5087733;28;20203;-73
2022/01/23 10:04:27;;;;;;;13.03;7.00;;;;;;;;;;5076156;28;20665;-72
2022/01/23 10:06:59;;;;;;;10.47;6.77;;;;;;;;;;5075304;28;20201;-73
2022/01/23 10:09:31;;;;;;;9.90;7.50;;;;;;;;;;5080359;28;20558;-74
2022/01/23 10:12:08;;;;;;;10.23;6.63;;;;;;;;;;5075087;28;20194;-73
2022/01/23 10:14:38;;;;;;;13.97;7.30;;;;;;;;;;5075761;28;20218;-75
2022/01/23 10:17:11;;;;;;;9.40;7.03;;;;;;;;;;5058733;28;20670;-74
2022/01/23 10:19:43;;;;;;;11.03;7.23;;;;;;;;;;5078602;28;20292;-72
2022/01/23 10:22:22;;;;;;;10.43;7.43;;;;;;;;;;5075621;28;20641;-73
2022/01/23 10:24:52;;;;;;;11.30;6.77;;;;;;;;;;5074739;28;20244;-74
2022/01/23 10:27:24;;;;;;;10.33;7.07;;;;;;;;;;5075519;28;20589;-73
2022/01/23 10:29:53;;;;;;;10.20;6.00;;;;;;;;;;5075147;28;20203;-72
2022/01/23 10:32:23;;;;;;;9.80;6.20;;;;;;;;;;5085900;28;20205;-72
2022/01/23 10:34:54;;;;;;;10.50;6.57;;;;;;;;;;5079234;28;20556;-75
2022/01/23 10:37:34;;;;;;;6.73;5.80;;;;;;;;;;5070220;28;20226;-75
2022/01/23 10:40:10;;;;;;;10.27;6.27;;;;;;;;;;5074967;28;20545;-75
2022/01/23 10:42:57;;;;;;;7.80;6.30;;;;;;;;;;5075617;28;20286;-75
2022/01/23 10:48:27;;;;;;;9.70;5.97;;;;;;;;;;5066399;28;20225;-75
2022/01/23 10:51:13;;;;;;;9.03;6.57;;;;;;;;;;5075220;28;20259;-75
2022/01/23 10:53:57;;;;;;;7.90;6.37;;;;;;;;;;5073161;28;20813;-75
2022/01/23 10:56:26;;;;;;;6.77;5.87;;;;;;;;;;5072745;27;20226;-75
2022/01/23 10:58:59;;;;;;;6.90;5.80;;;;;;;;;;5074930;28;20268;-73
2022/01/23 11:01:31;;;;;;;8.60;6.90;;;;;;;;;;5075256;28;20203;-72
2022/01/23 11:04:11;;;;;;;9.50;5.90;;;;;;;;;;5075636;28;20251;-72
2022/01/23 11:06:57;;;;;;;7.77;6.00;;;;;;;;;;5064436;28;20569;-73
2022/01/23 11:09:33;;;;;;;6.63;5.57;;;;;;;;;;5065836;27;20280;-72
2022/01/23 11:12:14;;;;;;;7.33;5.60;;;;;;;;;;5072698;28;20708;-72
2022/01/23 11:17:30;;;;;;;7.90;6.40;;;;;;;;;;5076362;28;20218;-71
2022/01/23 11:19:59;;;;;;;8.80;5.33;;;;;;;;;;5074139;28;20205;-71
2022/01/23 11:22:29;;;;;;;8.67;5.60;;;;;;;;;;5095767;28;20254;-69
2022/01/23 11:25:02;;;;;;;6.57;4.97;;;;;;;;;;5090071;28;20200;-72
2022/01/23 11:27:35;;;;;;;7.47;5.07;;;;;;;;;;5072741;28;20229;-71
2022/01/23 11:30:07;;;;;;;5.93;4.87;;;;;;;;;;5072400;28;20191;-72
2022/01/23 11:32:39;;;;;;;7.10;4.90;;;;;;;;;;5070259;28;20202;-71
2022/01/23 11:35:10;;;;;;;5.20;4.70;;;;;;;;;;5075277;28;20206;-73
2022/01/23 11:37:45;;;;;;;5.53;4.33;;;;;;;;;;5073280;27;20241;-72
2022/01/23 11:40:31;;;;;;;7.73;5.30;;;;;;;;;;5073081;28;20254;-71
2022/01/23 11:54:12;;;;;;;5.43;4.40;;;;;;;;;;5073534;28;20202;-73
2022/01/23 11:56:43;;;;;;;7.33;5.40;;;;;;;;;;5069087;28;20309;-72
2022/01/23 11:59:17;;;;;;;5.50;4.63;;;;;;;;;;5073960;28;20213;-73
2022/01/23 12:01:48;;;;;;;6.07;4.60;;;;;;;;;;5069767;28;20197;-71
2022/01/23 12:04:20;;;;;;;6.13;4.60;;;;;;;;;;5073904;28;20211;-71
2022/01/23 12:07:03;;;;;;;6.67;4.87;;;;;;;;;;5073349;28;20255;-73
2022/01/23 12:09:31;;;;;;;7.03;4.73;;;;;;;;;;5074417;28;20203;-74
2022/01/23 12:12:05;;;;;;;6.90;4.60;;;;;;;;;;5084721;28;20201;-71
2022/01/23 12:17:42;;;;;;;8.00;4.80;;;;;;;;;;5073905;28;20222;-71
2022/01/23 12:20:11;;;;;;;6.67;4.77;;;;;;;;;;5074555;28;20223;-71
2022/01/23 12:22:42;;;;;;;6.10;4.80;;;;;;;;;;5071388;28;20248;-73
2022/01/23 12:25:13;;;;;;;6.43;5.20;;;;;;;;;;5075206;28;20195;-74
2022/01/23 12:27:42;;;;;;;6.07;5.00;;;;;;;;;;5073326;28;20689;-71
2022/01/23 12:30:20;;;;;;;7.03;5.30;;;;;;;;;;5072198;28;20259;-74
2022/01/23 12:33:10;;;;;;;6.10;4.60;;;;;;;;;;5081668;28;20205;-74
2022/01/23 12:35:40;;;;;;;8.07;5.13;;;;;;;;;;5067952;28;20195;-74
2022/01/23 12:38:13;;;;;;;6.80;5.07;;;;;;;;;;5073235;28;20272;-74
2022/01/23 12:40:43;;;;;;;6.13;5.17;;;;;;;;;;5071746;28;20254;-73
2022/01/23 12:43:14;;;;;;;7.07;4.93;;;;;;;;;;5073523;28;20255;-72
2022/01/23 12:45:44;;;;;;;8.90;4.93;;;;;;;;;;5072581;28;20287;-71
2022/01/23 12:48:32;;;;;;;14.10;8.33;;;;;;;;;;5072772;28;20303;-71
2022/01/23 12:51:04;;;;;;;10.60;5.70;;;;;;;;;;5072914;28;20210;-71
2022/01/23 12:53:36;;;;;;;7.67;5.43;;;;;;;;;;5069886;28;20198;-72
2022/01/23 12:56:06;;;;;;;6.73;6.03;;;;;;;;;;5073038;28;20205;-71
2022/01/23 12:58:35;;;;;;;14.50;8.20;;;;;;;;;;5072645;28;20234;-71
2022/01/23 13:01:07;;;;;;;11.67;7.77;;;;;;;;;;5072483;28;20657;-70
2022/01/23 13:03:38;;;;;;;7.03;5.93;;;;;;;;;;5073021;28;20240;-71
2022/01/23 13:06:10;;;;;;;8.53;6.47;;;;;;;;;;5072980;28;20194;-70
2022/01/23 13:08:48;;;;;;;6.90;6.20;;;;;;;;;;5072643;28;20233;-71
2022/01/23 13:11:49;;;;;;;8.33;6.10;;;;;;;;;;5072341;28;20206;-72
2022/01/23 13:14:10;;;;;;;7.00;5.60;;;;;;;;;;5072254;28;20728;-72
2022/01/23 13:17:11;;;;;;;8.57;5.47;;;;;;;;;;5072677;28;20225;-72
2022/01/23 13:19:59;;;;;;;7.73;5.33;;;;;;;;;;5072209;28;20602;-70
2022/01/23 13:31:09;;;;;;;7.73;5.30;;;;;;;;;;5052528;28;20298;-70
2022/01/23 13:33:39;;;;;;;7.50;5.53;;;;;;;;;;5066906;28;20198;-72
2022/01/23 13:36:09;;;;;;;5.90;5.17;;;;;;;;;;5072133;28;20210;-73
2022/01/23 13:38:39;;;;;;;7.80;5.40;;;;;;;;;;5071604;28;20629;-71
2022/01/23 13:41:23;;;;;;;9.57;6.17;;;;;;;;;;5072599;28;20199;-73
2022/01/23 13:52:38;;;;;;;6.63;5.00;;;;;;;;;;5073276;28;20207;-74
2022/01/23 13:58:21;;;;;;;7.57;5.03;;;;;;;;;;5072669;28;20253;-73
2022/01/23 14:00:58;;;;;;;7.40;5.17;;;;;;;;;;5072891;28;20255;-70
2022/01/23 14:03:27;;;;;;;7.43;5.37;;;;;;;;;;5072961;28;20206;-74
2022/01/23 14:05:55;;;;;;;6.80;5.10;;;;;;;;;;5072853;28;20213;-72
2022/01/23 14:08:24;;;;;;;8.97;5.60;;;;;;;;;;5072773;28;20226;-72
2022/01/23 14:10:55;;;;;;;7.03;5.30;;;;;;;;;;5072741;28;20209;-70
2022/01/23 14:13:25;;;;;;;9.33;6.13;;;;;;;;;;5072538;28;20203;-73
2022/01/23 14:15:54;;;;;;;5.73;4.87;;;;;;;;;;5072852;28;20314;-70
2022/01/23 14:18:24;;;;;;;9.07;5.43;;;;;;;;;;5072349;28;20257;-72
2022/01/23 14:20:59;;;;;;;8.00;5.10;;;;;;;;;;5072903;28;20198;-74
2022/01/23 14:23:28;;;;;;;6.77;5.20;;;;;;;;;;5072990;28;20595;-73
2022/01/23 14:25:59;;;;;;;6.80;4.47;;;;;;;;;;5072582;28;20259;-72
2022/01/23 14:28:29;;;;;;;7.43;4.73;;;;;;;;;;5072514;28;20214;-73
2022/01/23 14:30:59;;;;;;;7.80;5.30;;;;;;;;;;5072748;28;20252;-73
2022/01/23 14:33:30;;;;;;;7.07;5.00;;;;;;;;;;5072490;28;20210;-74
2022/01/23 14:36:19;;;;;;;6.73;5.00;;;;;;;;;;5072517;28;20206;-72
2022/01/23 14:38:54;;;;;;;5.73;4.77;;;;;;;;;;5072546;28;20222;-74
2022/01/23 14:41:24;;;;;;;6.37;4.77;;;;;;;;;;5072174;28;20198;-73
2022/01/23 14:43:53;;;;;;;5.43;4.83;;;;;;;;;;5072670;28;20658;-71
2022/01/23 14:46:22;;;;;;;7.87;5.20;;;;;;;;;;5076091;28;20242;-72
2022/01/23 14:48:58;;;;;;;8.43;5.40;;;;;;;;;;5075812;28;20218;-71
2022/01/23 14:51:29;;;;;;;7.57;5.43;;;;;;;;;;5075967;28;20206;-74
2022/01/23 14:53:58;;;;;;;6.83;5.27;;;;;;;;;;5075489;28;20202;-73
2022/01/23 14:56:29;;;;;;;7.37;5.07;;;;;;;;;;5074919;28;20248;-74
2022/01/23 14:58:58;;;;;;;8.10;4.83;;;;;;;;;;5073952;28;20225;-72
2022/01/23 15:01:27;;;;;;;6.43;4.87;;;;;;;;;;5074324;28;20267;-72
2022/01/23 15:03:56;;;;;;;8.53;4.90;;;;;;;;;;5083441;28;20222;-72
2022/01/23 15:06:30;;;;;;;7.70;4.60;;;;;;;;;;5072190;28;20662;-73
2022/01/23 15:09:05;;;;;;;6.83;5.10;;;;;;;;;;5075051;28;20229;-72
2022/01/23 15:11:35;;;;;;;10.33;5.20;;;;;;;;;;5067109;28;20215;-74
2022/01/23 15:14:05;;;;;;;7.13;5.17;;;;;;;;;;5075087;28;20638;-73
2022/01/23 15:16:34;;;;;;;9.40;5.17;;;;;;;;;;5057113;28;20214;-74
2022/01/23 15:19:03;;;;;;;8.17;5.43;;;;;;;;;;5071778;28;20226;-72
2022/01/23 15:21:31;;;;;;;11.77;5.07;;;;;;;;;;5077822;28;20203;-75
2022/01/23 15:24:00;;;;;;;11.90;7.03;;;;;;;;;;5075266;28;20727;-74
2022/01/23 15:26:31;;;;;;;9.47;7.50;;;;;;;;;;5075442;28;20206;-75
2022/01/23 15:29:01;;;;;;;7.77;5.67;;;;;;;;;;5089493;28;20210;-75
2022/01/23 15:31:31;;;;;;;13.53;7.47;;;;;;;;;;5095790;28;20206;-72
2022/01/23 15:34:00;;;;;;;11.97;9.23;;;;;;;;;;5089766;28;20204;-75
2022/01/23 15:36:28;;;;;;;10.10;7.33;;;;;;;;;;5081129;28;20207;-73
2022/01/23 15:38:57;;;;;;;12.07;6.70;;;;;;;;;;5074832;28;20222;-74
2022/01/23 15:41:25;;;;;;;8.43;6.57;;;;;;;;;;5075052;28;20210;-73
2022/01/23 15:43:53;;;;;;;7.90;6.07;;;;;;;;;;5076530;28;20198;-74
2022/01/23 15:46:25;;;;;;;8.90;6.43;;;;;;;;;;5088784;28;20211;-73
2022/01/23 15:48:53;;;;;;;8.33;5.80;;;;;;;;;;5074930;28;20309;-72
2022/01/23 15:51:22;;;;;;;7.50;5.30;;;;;;;;;;5073497;28;20914;-72
2022/01/23 15:53:50;;;;;;;8.73;6.13;;;;;;;;;;5080294;28;20193;-72
2022/01/23 15:56:19;;;;;;;6.53;5.83;;;;;;;;;;5073471;28;20198;-74
2022/01/23 15:58:47;;;;;;;6.90;6.07;;;;;;;;;;5074309;28;20279;-73
2022/01/23 16:01:16;;;;;;;13.33;8.23;;;;;;;;;;5071878;28;20203;-72
2022/01/23 16:03:47;;;;;;;6.97;6.27;;;;;;;;;;5074493;28;20230;-72
2022/01/23 16:06:16;;;;;;;8.40;5.73;;;;;;;;;;5072840;28;20203;-72
2022/01/23 16:08:49;;;;;;;8.73;6.80;;;;;;;;;;5071563;28;20690;-74
2022/01/23 16:11:17;;;;;;;6.00;5.27;;;;;;;;;;5070269;28;20259;-74
2022/01/23 16:13:46;;;;;;;7.80;5.07;;;;;;;;;;5064004;28;20221;-72
2022/01/23 16:16:15;;;;;;;6.73;4.87;;;;;;;;;;5073632;28;20209;-73
2022/01/23 16:18:44;;;;;;;7.37;5.73;;;;;;;;;;5072792;28;20678;-74
2022/01/23 16:21:14;;;;;;;7.87;5.30;;;;;;;;;;5074367;28;20187;-74
2022/01/23 16:23:42;;;;;;;5.47;4.20;;;;;;;;;;5072786;28;20213;-72
2022/01/23 16:26:11;;;;;;;6.63;4.57;;;;;;;;;;5073991;28;20209;-75
2022/01/23 16:28:40;;;;;;;5.60;3.97;;;;;;;;;;5071148;28;20246;-71
2022/01/23 16:31:09;;;;;;;5.37;4.03;;;;;;;;;;5056296;28;20199;-73
2022/01/23 16:33:39;;;;;;;5.67;4.07;;;;;;;;;;5069777;28;20206;-72
2022/01/23 16:36:08;;;;;;;4.33;3.93;;;;;;;;;;5073444;28;20217;-74
2022/01/23 16:38:38;;;;;;;4.13;3.67;;;;;;;;;;5072197;28;20283;-73
2022/01/23 16:41:07;;;;;;;5.80;3.87;;;;;;;;;;5074106;28;20225;-74
2022/01/23 16:43:35;;;;;;;4.63;4.00;;;;;;;;;;5071553;28;20205;-75
2022/01/23 16:46:04;;;;;;;4.20;3.80;;;;;;;;;;5073890;28;20268;-75
2022/01/23 16:48:33;;;;;;;5.67;4.03;;;;;;;;;;5071277;28;20222;-72
2022/01/23 16:51:02;;;;;;;4.87;3.77;;;;;;;;;;5069376;28;20210;-74
2022/01/23 16:53:31;;;;;;;5.37;3.93;;;;;;;;;;5073530;28;20210;-72
2022/01/23 16:56:05;;;;;;;6.43;3.30;;;;;;;;;;5073020;28;20210;-74
2022/01/23 16:58:35;;;;;;;5.40;4.00;;;;;;;;;;5072082;28;20399;-73
2022/01/23 17:01:06;;;;;;;6.83;4.30;;;;;;;;;;5075258;28;20207;-72
2022/01/23 17:03:35;;;;;;;7.77;3.80;;;;;;;;;;4728657;28;10000042;-75
2022/01/23 17:06:04;;;;;;;5.00;4.10;;;;;;;;;;5072475;28;20262;-76
2022/01/23 17:08:33;;;;;;;4.97;4.47;;;;;;;;;;5064756;28;20218;-74
2022/01/23 17:11:01;;;;;;;5.07;4.57;;;;;;;;;;5079085;28;20210;-76
2022/01/23 17:13:31;;;;;;;6.00;4.47;;;;;;;;;;5066551;28;20656;-76
2022/01/23 17:16:00;;;;;;;5.97;4.40;;;;;;;;;;5071966;28;20890;-75
2022/01/23 17:18:30;;;;;;;6.50;4.40;;;;;;;;;;5065202;28;20230;-74
2022/01/23 17:20:58;;;;;;;5.33;4.40;;;;;;;;;;5066982;28;20198;-73
2022/01/23 17:23:26;;;;;;;4.83;4.27;;;;;;;;;;5065747;28;20214;-72
2022/01/23 17:25:55;;;;;;;5.70;4.33;;;;;;;;;;5068581;28;20205;-73
2022/01/23 17:28:23;;;;;;;5.60;4.43;;;;;;;;;;5067285;28;20752;-76
2022/01/23 17:30:53;;;;;;;5.17;4.43;;;;;;;;;;5066632;28;20210;-77
2022/01/23 17:33:22;;;;;;;6.03;4.23;;;;;;;;;;5060567;28;20286;-73
2022/01/23 17:35:56;;;;;;;5.43;4.53;;;;;;;;;;5067396;28;20214;-73
2022/01/23 17:38:24;;;;;;;4.70;4.30;;;;;;;;;;5066673;28;20226;-73